Terminal Aerodrome Forecast
Issued by NWS

Home | Current Version | Previous Version | Text Only | Print | Product List | Glossary On
Versions: 1 2 3 4 5 6 7 8 9 10 11 12 13 14 15 16
000
FTUS43 KGRB 251700
TAFMTW
TAF
KMTW 251726Z 2518/2618 04013G19KT P6SM BKN030
     FM251900 03010G16KT P6SM SCT030
     FM260000 03009KT P6SM SCT250
     FM260700 VRB03KT P6SM SCT100 BKN200
     FM261500 19007KT P6SM OVC060=

USA.gov is the U.S. government's official web portal to all federal, state and local government web resources and services.